createdAt,value
2019-05-03T00:01:12.917Z,2.10
2019-05-03T00:03:39.055Z,2.07
2019-05-03T00:06:05.234Z,2.04
2019-05-03T00:08:33.333Z,2.01
2019-05-03T00:10:59.592Z,1.98
2019-05-03T00:13:25.686Z,1.97
2019-05-03T00:15:56.688Z,1.96
2019-05-03T00:18:22.618Z,1.94
2019-05-03T00:20:48.588Z,1.90
2019-05-03T00:23:14.576Z,1.88
2019-05-03T00:25:41.867Z,1.87
2019-05-03T00:28:07.809Z,1.86
2019-05-03T00:30:33.765Z,1.85
2019-05-03T00:32:59.853Z,1.80
2019-05-03T00:35:31.939Z,1.77
2019-05-03T00:38:02.169Z,1.75
2019-05-03T00:40:28.622Z,1.73
2019-05-03T00:42:54.777Z,1.71
2019-05-03T00:45:22.103Z,1.68
2019-05-03T00:47:48.113Z,1.64
2019-05-03T00:50:14.209Z,1.59
2019-05-03T00:52:42.240Z,1.55
2019-05-03T00:55:16.040Z,1.54
2019-05-03T00:57:35.939Z,1.51
2019-05-03T01:00:03.845Z,1.48
2019-05-03T01:02:31.659Z,1.49
2019-05-03T01:04:57.523Z,1.49
2019-05-03T01:07:23.499Z,1.48
2019-05-03T01:09:49.466Z,1.45
2019-05-03T01:12:15.619Z,1.45
2019-05-03T01:14:43.544Z,1.44
2019-05-03T01:17:11.617Z,1.42
2019-05-03T01:19:37.289Z,1.39
2019-05-03T01:22:03.375Z,1.36
2019-05-03T01:24:29.290Z,1.33
2019-05-03T01:26:55.226Z,1.32
2019-05-03T01:29:22.807Z,1.30
2019-05-03T01:31:48.947Z,1.26
2019-05-03T01:34:15.021Z,1.24
2019-05-03T01:36:42.613Z,1.22
2019-05-03T01:39:08.615Z,1.23
2019-05-03T01:41:34.620Z,1.22
2019-05-03T01:44:01.914Z,1.23
2019-05-03T01:46:28.005Z,1.21
2019-05-03T01:48:58.456Z,1.18
2019-05-03T01:51:32.689Z,1.17
2019-05-03T01:53:58.692Z,1.15
2019-05-03T01:56:24.544Z,1.15
2019-05-03T01:58:52.263Z,1.16
2019-05-03T02:01:22.961Z,1.13
2019-05-03T02:03:56.731Z,1.12
2019-05-03T02:06:22.649Z,1.09
2019-05-03T02:08:48.555Z,1.05
2019-05-03T02:11:14.682Z,1.05
2019-05-03T02:13:42.646Z,1.05
2019-05-03T02:16:08.472Z,1.02
2019-05-03T02:18:34.503Z,1.01
2019-05-03T02:21:01.681Z,1.00
2019-05-03T02:23:27.763Z,0.96
2019-05-03T02:25:56.804Z,0.98
2019-05-03T02:28:22.164Z,0.98
2019-05-03T02:30:48.514Z,0.98
2019-05-03T02:33:14.853Z,1.00
2019-05-03T02:35:43.023Z,1.00
2019-05-03T02:38:09.491Z,0.99
2019-05-03T02:40:35.501Z,1.00
2019-05-03T02:43:09.537Z,0.96
2019-05-03T02:45:56.523Z,0.91
2019-05-03T02:48:32.505Z,0.86
2019-05-03T02:50:58.560Z,0.85
2019-05-03T02:53:25.814Z,0.84
2019-05-03T02:55:52.083Z,0.83
2019-05-03T02:58:18.073Z,0.83
2019-05-03T03:00:56.395Z,0.83
2019-05-03T03:03:25.420Z,0.85
2019-05-03T03:05:51.221Z,0.83
2019-05-03T03:08:19.009Z,0.78
2019-05-03T03:10:45.684Z,0.77
2019-05-03T03:13:11.988Z,0.78
2019-05-03T03:15:41.238Z,0.77
2019-05-03T03:18:08.940Z,0.77
2019-05-03T03:20:37.061Z,0.77
2019-05-03T03:23:06.005Z,0.80
2019-05-03T03:25:36.613Z,0.82
2019-05-03T03:28:05.922Z,0.81
2019-05-03T03:31:00.007Z,0.84
2019-05-03T03:33:28.047Z,0.84
2019-05-03T03:36:01.339Z,0.84
2019-05-03T03:38:22.362Z,0.85
2019-05-03T03:40:49.181Z,0.85
2019-05-03T03:43:17.843Z,0.86
2019-05-03T03:45:45.559Z,0.86
2019-05-03T03:48:12.687Z,0.84
2019-05-03T03:50:40.617Z,0.90
2019-05-03T03:53:10.021Z,0.92
2019-05-03T03:55:37.816Z,0.95
2019-05-03T03:58:06.532Z,0.96
2019-05-03T04:00:32.304Z,0.98
2019-05-03T04:02:58.536Z,0.99
2019-05-03T04:05:25.361Z,1.01
2019-05-03T04:07:52.443Z,1.04
2019-05-03T04:10:18.575Z,1.04
2019-05-03T04:12:46.098Z,1.06
2019-05-03T04:15:29.151Z,1.05
2019-05-03T04:18:07.107Z,1.08
2019-05-03T04:20:36.308Z,1.11
2019-05-03T04:23:05.130Z,1.09
2019-05-03T04:25:30.804Z,1.06
2019-05-03T04:27:56.936Z,1.05
2019-05-03T04:30:25.445Z,1.06
2019-05-03T04:32:50.797Z,1.05
2019-05-03T04:35:16.748Z,1.05
2019-05-03T04:37:45.235Z,1.08
2019-05-03T04:40:10.863Z,1.11
2019-05-03T04:42:36.765Z,1.06
2019-05-03T04:45:05.849Z,1.12
2019-05-03T04:47:32.016Z,1.12
2019-05-03T04:49:57.929Z,1.16
2019-05-03T04:52:25.981Z,1.19
2019-05-03T04:54:56.301Z,1.21
2019-05-03T04:57:36.577Z,1.22
2019-05-03T04:59:49.258Z,1.22
2019-05-03T05:02:16.099Z,1.20
2019-05-03T05:04:42.192Z,1.19
2019-05-03T05:07:08.223Z,1.15
2019-05-03T05:09:34.916Z,1.12
2019-05-03T05:12:01.166Z,1.10
2019-05-03T05:14:27.211Z,1.08
2019-05-03T05:16:55.697Z,1.09
2019-05-03T05:19:39.358Z,1.10
2019-05-03T05:22:07.177Z,1.12
2019-05-03T05:24:34.617Z,1.12
2019-05-03T05:27:14.734Z,1.07
2019-05-03T05:29:40.753Z,1.05
2019-05-03T05:32:06.640Z,1.02
2019-05-03T05:34:32.584Z,1.02
2019-05-03T05:36:58.608Z,1.06
2019-05-03T05:39:24.634Z,1.09
2019-05-03T05:41:50.592Z,1.14
2019-05-03T05:44:16.630Z,1.19
2019-05-03T05:46:54.306Z,1.18
2019-05-03T05:49:40.029Z,1.21
2019-05-03T05:52:06.265Z,1.21
2019-05-03T05:54:32.255Z,1.21
2019-05-03T05:57:00.151Z,1.20
2019-05-03T05:59:28.215Z,1.22
2019-05-03T06:01:56.021Z,1.25
2019-05-03T06:04:21.943Z,1.21
2019-05-03T06:06:50.103Z,1.28
2019-05-03T06:09:21.100Z,1.32
2019-05-03T06:11:52.043Z,1.30
2019-05-03T06:14:26.409Z,1.28
2019-05-03T06:16:55.568Z,1.29
2019-05-03T06:19:34.430Z,1.28
2019-05-03T06:22:05.178Z,1.30
2019-05-03T06:24:35.575Z,1.34
2019-05-03T06:27:05.014Z,1.35
2019-05-03T06:29:31.299Z,1.38
2019-05-03T06:31:59.119Z,1.38
2019-05-03T06:34:25.733Z,1.39
2019-05-03T06:36:55.294Z,1.42
2019-05-03T06:39:21.418Z,1.48
2019-05-03T06:41:47.436Z,1.49
2019-05-03T06:44:14.479Z,1.49
2019-05-03T06:46:46.030Z,1.45
2019-05-03T06:49:15.364Z,1.42
2019-05-03T06:51:45.709Z,1.37
2019-05-03T06:54:09.726Z,1.37
2019-05-03T06:56:36.168Z,1.32
2019-05-03T06:59:03.004Z,1.31
2019-05-03T07:01:34.522Z,1.29
2019-05-03T07:04:04.981Z,1.30
2019-05-03T07:06:40.381Z,1.30
2019-05-03T07:09:14.424Z,1.29
2019-05-03T07:11:40.439Z,1.29
2019-05-03T07:14:06.456Z,1.33
2019-05-03T07:16:32.582Z,1.34
2019-05-03T07:18:59.396Z,1.36
2019-05-03T07:21:25.343Z,1.38
2019-05-03T07:23:51.366Z,1.37
2019-05-03T07:26:17.268Z,1.37
2019-05-03T07:28:47.829Z,1.40
2019-05-03T07:31:11.267Z,1.44
2019-05-03T07:33:37.281Z,1.47
2019-05-03T07:36:05.277Z,1.51
2019-05-03T07:38:31.660Z,1.52
2019-05-03T07:40:59.525Z,1.49
2019-05-03T07:43:25.571Z,1.48
2019-05-03T07:45:51.724Z,1.45
2019-05-03T07:48:17.655Z,1.34
2019-05-03T07:50:44.746Z,1.46
2019-05-03T07:53:10.912Z,1.48
2019-05-03T07:55:50.553Z,1.50
2019-05-03T07:58:18.793Z,1.53
2019-05-03T08:00:44.853Z,1.51
2019-05-03T08:03:10.847Z,1.48
2019-05-03T08:05:37.030Z,1.49
2019-05-03T08:08:04.802Z,1.49
2019-05-03T08:10:30.862Z,1.50
2019-05-03T08:12:56.882Z,1.48
2019-05-03T08:15:24.522Z,1.47
2019-05-03T08:17:50.560Z,1.47
2019-05-03T08:20:16.564Z,1.47
2019-05-03T16:51:52.234Z,3.22
2019-05-03T16:54:18.211Z,3.08
2019-05-03T16:56:44.423Z,3.04
2019-05-03T16:59:10.516Z,3.04
2019-05-03T17:01:36.371Z,3.04
2019-05-03T17:04:21.040Z,3.05
2019-05-03T17:06:48.784Z,3.00
2019-05-03T17:09:35.212Z,3.00
2019-05-03T17:12:08.401Z,2.98
2019-05-03T17:14:34.481Z,2.99
2019-05-03T17:17:00.305Z,3.00
2019-05-03T17:19:26.180Z,2.99
2019-05-03T17:21:52.133Z,2.92
2019-05-03T17:24:18.009Z,2.86
2019-05-03T17:26:44.402Z,2.84
2019-05-03T17:29:10.378Z,2.84
2019-05-03T17:31:36.303Z,2.83
2019-05-03T17:34:02.290Z,2.85
2019-05-03T17:36:28.359Z,2.88
2019-05-03T17:38:56.132Z,2.92
2019-05-03T17:41:40.457Z,2.86
2019-05-03T17:44:08.249Z,2.82
2019-05-03T17:46:34.773Z,2.74
2019-05-03T17:49:00.906Z,2.72
2019-05-03T17:51:45.613Z,2.74
2019-05-03T17:54:28.312Z,2.75
2019-05-03T17:57:04.863Z,2.76
2019-05-03T17:59:35.487Z,2.82
2019-05-03T18:02:19.504Z,2.85
2019-05-03T18:05:05.281Z,2.89
2019-05-03T18:07:35.751Z,2.91
2019-05-03T18:10:04.729Z,2.92
2019-05-03T18:12:31.034Z,2.95
2019-05-03T18:14:56.904Z,2.92
2019-05-03T18:17:24.674Z,2.90
2019-05-03T18:19:50.921Z,2.90
2019-05-03T18:22:16.971Z,2.90
2019-05-03T18:24:42.835Z,2.88
2019-05-03T18:27:08.825Z,2.87
2019-05-03T18:29:34.900Z,2.88
2019-05-03T18:32:00.891Z,2.88
2019-05-03T18:34:26.860Z,2.87
2019-05-03T18:36:52.835Z,2.81
2019-05-03T18:39:18.778Z,2.79
2019-05-03T18:41:45.281Z,2.72
2019-05-03T18:44:14.756Z,2.68
2019-05-03T18:46:51.611Z,2.68
2019-05-03T18:49:17.607Z,2.66
2019-05-03T18:51:44.750Z,2.67
2019-05-03T18:54:10.942Z,2.68
2019-05-03T18:56:36.981Z,2.71
2019-05-03T18:59:04.944Z,2.73
2019-05-03T19:01:30.878Z,2.75
2019-05-03T19:03:58.758Z,2.74
2019-05-03T19:06:24.756Z,2.67
2019-05-03T19:09:10.745Z,2.59
2019-05-03T19:11:54.868Z,2.57
2019-05-03T19:14:25.482Z,2.56
2019-05-03T19:16:55.987Z,2.51
2019-05-03T19:19:26.834Z,2.50
2019-05-03T19:21:52.802Z,2.42
2019-05-03T19:24:19.032Z,2.40
2019-05-03T19:26:45.190Z,2.43
2019-05-03T19:29:11.136Z,2.47
2019-05-03T19:31:37.237Z,2.50
2019-05-03T19:34:03.204Z,2.47
2019-05-03T19:36:29.061Z,2.46
2019-05-03T19:38:54.963Z,2.49
2019-05-03T19:41:25.110Z,2.51
2019-05-03T19:43:51.154Z,2.55
2019-05-03T19:46:17.002Z,2.57
2019-05-03T19:48:45.304Z,2.59
2019-05-03T19:51:12.586Z,2.60
2019-05-03T19:53:46.456Z,2.63
2019-05-03T19:56:12.400Z,2.64
2019-05-03T19:58:39.159Z,2.66
2019-05-03T20:01:07.068Z,2.63
2019-05-03T20:03:51.343Z,2.62
2019-05-03T20:06:22.024Z,2.53
2019-05-03T20:08:51.690Z,2.45
2019-05-03T20:11:19.235Z,2.43
2019-05-03T20:13:45.366Z,2.40
2019-05-03T20:16:11.284Z,2.35
2019-05-03T20:18:37.252Z,2.35
2019-05-03T20:21:04.357Z,2.35
2019-05-03T20:23:30.300Z,2.36
2019-05-03T20:25:56.187Z,2.39
2019-05-03T20:28:22.183Z,2.41
2019-05-03T20:30:48.082Z,2.41
2019-05-03T20:33:13.986Z,2.39
2019-05-03T20:35:39.943Z,2.36
2019-05-03T20:38:05.808Z,2.31
2019-05-03T20:40:31.824Z,2.26
2019-05-03T20:43:02.346Z,2.27
2019-05-03T20:45:36.025Z,2.28
2019-05-03T20:48:02.766Z,2.29
2019-05-03T20:50:28.612Z,2.27
2019-05-03T20:52:54.985Z,2.29
2019-05-03T20:55:21.132Z,2.24
2019-05-03T20:57:47.023Z,2.20
2019-05-03T21:00:14.974Z,2.14
2019-05-03T21:02:50.758Z,2.11
2019-05-03T21:05:09.116Z,2.07
2019-05-03T21:07:35.200Z,2.07
2019-05-03T21:10:01.320Z,2.08
2019-05-03T21:12:27.233Z,2.07
2019-05-03T21:14:53.086Z,2.03
2019-05-03T21:17:25.293Z,2.06
2019-05-03T21:19:55.752Z,2.09
2019-05-03T21:22:24.816Z,2.07
2019-05-03T21:24:58.694Z,2.05
2019-05-03T21:27:24.689Z,2.06
2019-05-03T21:29:51.534Z,2.07
2019-05-03T21:32:17.711Z,2.07
2019-05-03T21:34:45.152Z,2.07
2019-05-03T21:37:11.026Z,2.08
2019-05-03T21:39:36.941Z,2.11
2019-05-03T21:42:04.633Z,2.10
2019-05-03T21:44:30.977Z,2.05
2019-05-03T21:46:58.936Z,2.03
2019-05-03T21:49:26.693Z,2.03
2019-05-03T21:51:53.691Z,2.05
2019-05-03T21:54:19.722Z,2.04
2019-05-03T21:56:45.578Z,2.05
2019-05-03T21:59:13.335Z,2.06
2019-05-03T22:01:41.484Z,2.08
2019-05-03T22:04:08.988Z,2.11
2019-05-03T22:06:35.133Z,2.14
2019-05-03T22:09:04.513Z,2.20
2019-05-03T22:11:30.411Z,2.23
2019-05-03T22:13:58.377Z,2.24
2019-05-03T22:16:38.134Z,2.27
2019-05-03T22:19:04.066Z,2.30
2019-05-03T22:21:31.841Z,2.32
2019-05-03T22:24:04.343Z,2.32
2019-05-03T22:26:48.394Z,2.32
2019-05-03T22:29:17.250Z,2.34
2019-05-03T22:31:42.688Z,2.36
2019-05-03T22:34:08.672Z,2.32
2019-05-03T22:36:35.061Z,2.40
2019-05-03T22:39:01.104Z,2.43
2019-05-03T22:41:26.957Z,2.46
2019-05-03T22:43:54.681Z,2.49
2019-05-03T22:46:20.611Z,2.52
2019-05-03T22:48:46.637Z,2.54
2019-05-03T22:51:12.521Z,2.55
2019-05-03T22:53:38.395Z,2.56
2019-05-03T22:56:04.937Z,2.56
2019-05-03T22:58:30.926Z,2.55
2019-05-03T23:00:56.812Z,2.56
2019-05-03T23:03:22.709Z,2.56
2019-05-03T23:05:48.560Z,2.55
2019-05-03T23:08:14.871Z,2.55
2019-05-03T23:10:40.783Z,2.57
2019-05-03T23:13:06.660Z,2.58
2019-05-03T23:15:32.527Z,2.44
2019-05-03T23:17:58.504Z,2.56
2019-05-03T23:20:44.754Z,2.55
2019-05-03T23:23:14.409Z,2.53
2019-05-03T23:25:40.241Z,2.53
2019-05-03T23:28:06.350Z,2.51
2019-05-03T23:30:32.323Z,2.50
2019-05-03T23:32:58.208Z,2.50
2019-05-03T23:35:24.661Z,2.48
2019-05-03T23:37:50.730Z,2.47
2019-05-03T23:40:16.761Z,2.47
2019-05-03T23:42:42.608Z,2.47
2019-05-03T23:45:08.568Z,2.47
2019-05-03T23:47:36.485Z,2.47
2019-05-03T23:50:04.554Z,2.46
2019-05-03T23:52:32.441Z,2.46
2019-05-03T23:55:02.843Z,2.45
2019-05-03T23:57:28.946Z,2.44
2019-05-03T23:59:56.819Z,2.43
